Time,TemperatureF,DewpointF,PressureIn,WindDirection,WindDirectionDegrees,WindSpeedMPH,WindSpeedGustMPH,Humidity,HourlyPrecipIn,Conditions,Clouds,dailyrainin,SoftwareType,DateUTC
2013-08-17 00:01:00,86.1,89.2,30.07,SSE,157,1.8,2.2,71,0.00,,,0.00,,2013-08-17 04:01:00,
2013-08-17 00:06:00,86.1,89.2,30.08,SE,135,0.7,1.8,71,0.00,,,0.00,,2013-08-17 04:06:00,
2013-08-17 00:11:00,86.1,89.2,30.08,SE,135,0.4,0.0,71,0.00,,,0.00,,2013-08-17 04:11:00,
2013-08-17 00:16:00,86.1,89.2,30.08,SE,135,0.9,2.5,71,0.00,,,0.00,,2013-08-17 04:16:00,
2013-08-17 00:21:00,86.0,89.1,30.07,SE,135,0.1,1.8,71,0.00,,,0.00,,2013-08-17 04:21:00,
2013-08-17 00:26:00,86.0,89.1,30.07,SE,135,0.0,0.0,71,0.00,,,0.00,,2013-08-17 04:26:00,
2013-08-17 00:31:00,86.1,89.1,30.07,SE,135,0.5,1.3,71,0.00,,,0.00,,2013-08-17 04:31:00,
2013-08-17 00:36:00,86.1,89.1,30.07,SE,135,0.0,0.9,71,0.00,,,0.00,,2013-08-17 04:36:00,
2013-08-17 00:41:00,86.0,89.1,30.07,SSE,157,0.4,1.6,71,0.00,,,0.00,,2013-08-17 04:41:00,
2013-08-17 00:46:00,86.0,89.2,30.07,SE,135,0.0,0.0,71,0.00,,,0.00,,2013-08-17 04:46:00,
2013-08-17 00:51:00,85.9,89.1,30.07,SE,135,0.2,1.6,71,0.00,,,0.00,,2013-08-17 04:51:00,
2013-08-17 00:56:00,85.9,89.1,30.07,SE,135,0.1,0.9,71,0.00,,,0.00,,2013-08-17 04:56:00,
2013-08-17 01:01:00,85.9,89.1,30.06,SE,135,0.0,0.9,71,0.00,,,0.00,,2013-08-17 05:01:00,
2013-08-17 01:06:00,85.9,89.1,30.06,SE,135,0.0,0.0,71,0.00,,,0.00,,2013-08-17 05:06:00,
2013-08-17 01:11:00,85.8,89.1,30.06,SE,135,0.6,1.6,71,0.00,,,0.00,,2013-08-17 05:11:00,
2013-08-17 01:16:00,85.8,89.2,30.06,SE,135,0.3,0.7,71,0.00,,,0.00,,2013-08-17 05:16:00,
2013-08-17 01:21:00,85.8,89.1,30.06,SE,135,0.1,0.9,71,0.00,,,0.00,,2013-08-17 05:21:00,
2013-08-17 01:26:00,85.7,89.1,30.06,SE,135,0.6,1.6,72,0.00,,,0.00,,2013-08-17 05:26:00,
2013-08-17 01:31:00,85.8,89.1,30.06,ESE,112,0.0,1.3,72,0.00,,,0.00,,2013-08-17 05:31:00,
2013-08-17 01:36:00,85.8,89.1,30.06,ESE,112,1.9,3.6,72,0.00,,,0.00,,2013-08-17 05:36:00,
2013-08-17 01:41:00,85.7,89.0,30.06,ESE,112,1.4,3.1,72,0.00,,,0.00,,2013-08-17 05:41:00,
2013-08-17 01:46:00,85.7,89.0,30.06,ESE,112,0.2,0.2,72,0.00,,,0.00,,2013-08-17 05:46:00,
2013-08-17 01:51:00,85.6,89.0,30.06,SE,135,0.5,1.6,72,0.00,,,0.00,,2013-08-17 05:51:00,
2013-08-17 01:56:00,85.6,89.1,30.06,SE,135,1.3,1.8,72,0.00,,,0.00,,2013-08-17 05:56:00,
2013-08-17 02:01:00,85.6,89.1,30.05,ESE,112,0.5,1.3,72,0.00,,,0.00,,2013-08-17 06:01:00,
2013-08-17 02:06:00,85.6,89.0,30.05,East,90,1.3,1.8,72,0.00,,,0.00,,2013-08-17 06:06:00,
2013-08-17 02:11:00,85.6,89.0,30.06,ESE,112,0.2,1.6,72,0.00,,,0.00,,2013-08-17 06:11:00,
2013-08-17 02:16:00,85.7,89.0,30.06,East,90,0.1,0.0,72,0.00,,,0.00,,2013-08-17 06:16:00,
2013-08-17 02:21:00,85.6,89.0,30.06,SE,135,0.0,0.4,73,0.00,,,0.00,,2013-08-17 06:21:00,
2013-08-17 02:26:00,85.6,89.0,30.06,ESE,112,0.0,0.0,73,0.00,,,0.00,,2013-08-17 06:26:00,
2013-08-17 02:31:00,85.7,88.9,30.06,ESE,112,1.1,1.8,73,0.00,,,0.00,,2013-08-17 06:31:00,
2013-08-17 02:36:00,85.7,88.9,30.06,ESE,112,0.9,1.6,73,0.00,,,0.00,,2013-08-17 06:36:00,
2013-08-17 02:41:00,85.7,88.9,30.06,ESE,112,0.0,0.0,73,0.00,,,0.00,,2013-08-17 06:41:00,
2013-08-17 02:46:00,85.7,88.9,30.06,ESE,112,0.7,3.4,73,0.00,,,0.00,,2013-08-17 06:46:00,
2013-08-17 02:51:00,85.7,88.9,30.05,ESE,112,0.0,0.0,73,0.00,,,0.00,,2013-08-17 06:51:00,
2013-08-17 02:56:00,85.6,89.0,30.05,East,90,2.4,3.8,73,0.00,,,0.00,,2013-08-17 06:56:00,
2013-08-17 03:01:00,85.5,88.9,30.05,SE,135,2.0,3.4,73,0.00,,,0.00,,2013-08-17 07:01:00,
2013-08-17 03:06:00,85.5,88.9,30.05,ESE,112,2.1,3.6,74,0.00,,,0.00,,2013-08-17 07:06:00,
2013-08-17 03:12:00,85.4,88.9,30.05,ESE,112,1.9,3.1,74,0.00,,,0.00,,2013-08-17 07:12:00,
2013-08-17 03:17:00,85.5,88.9,30.05,ESE,112,2.3,5.6,74,0.00,,,0.00,,2013-08-17 07:17:00,
2013-08-17 03:22:00,85.4,88.9,30.04,ESE,112,1.8,2.9,74,0.00,,,0.00,,2013-08-17 07:22:00,
2013-08-17 03:27:00,85.4,88.9,30.04,East,90,3.4,5.1,74,0.00,,,0.00,,2013-08-17 07:27:00,
2013-08-17 03:32:00,85.4,88.9,30.04,SE,135,1.7,2.7,74,0.00,,,0.00,,2013-08-17 07:32:00,
2013-08-17 03:37:00,85.4,88.9,30.04,SE,135,0.0,2.0,74,0.00,,,0.00,,2013-08-17 07:37:00,
2013-08-17 03:42:00,85.3,88.9,30.04,SE,135,0.5,1.3,74,0.00,,,0.00,,2013-08-17 07:42:00,
2013-08-17 03:47:00,85.3,88.8,30.04,ESE,112,0.4,1.6,74,0.00,,,0.00,,2013-08-17 07:47:00,
2013-08-17 03:52:00,85.3,88.8,30.04,SE,135,0.2,0.7,74,0.00,,,0.00,,2013-08-17 07:52:00,
2013-08-17 03:57:00,85.3,88.8,30.04,SE,135,1.3,3.1,74,0.00,,,0.00,,2013-08-17 07:57:00,
2013-08-17 04:02:00,85.3,88.8,30.04,ESE,112,0.1,0.7,74,0.00,,,0.00,,2013-08-17 08:02:00,
2013-08-17 04:07:00,85.3,88.8,30.04,ESE,112,0.3,1.1,74,0.00,,,0.00,,2013-08-17 08:07:00,
2013-08-17 04:12:00,85.3,88.8,30.04,ESE,112,1.4,1.4,74,0.00,,,0.00,,2013-08-17 08:12:00,
2013-08-17 04:17:00,85.3,88.7,30.04,ESE,112,1.2,2.5,73,0.00,,,0.00,,2013-08-17 08:17:00,
2013-08-17 04:22:00,85.2,88.8,30.04,ESE,112,1.3,2.2,73,0.00,,,0.00,,2013-08-17 08:22:00,
2013-08-17 04:27:00,85.2,88.8,30.04,SE,135,0.1,1.1,73,0.00,,,0.00,,2013-08-17 08:27:00,
2013-08-17 04:32:00,85.2,88.8,30.04,SE,135,0.1,0.0,74,0.00,,,0.00,,2013-08-17 08:32:00,
2013-08-17 04:37:00,85.2,88.7,30.04,SE,135,0.0,0.0,74,0.00,,,0.00,,2013-08-17 08:37:00,
2013-08-17 04:42:00,85.2,88.7,30.04,SE,135,0.0,0.0,73,0.00,,,0.00,,2013-08-17 08:42:00,
2013-08-17 04:47:00,85.2,88.8,30.04,SE,135,0.0,0.0,73,0.00,,,0.00,,2013-08-17 08:47:00,
2013-08-17 04:52:00,85.1,88.7,30.04,SE,135,0.6,0.9,73,0.00,,,0.00,,2013-08-17 08:52:00,
2013-08-17 04:57:00,85.1,88.7,30.04,SE,135,0.5,0.9,73,0.00,,,0.00,,2013-08-17 08:57:00,
2013-08-17 05:02:00,85.1,88.7,30.04,SE,135,0.0,0.0,74,0.00,,,0.00,,2013-08-17 09:02:00,
2013-08-17 05:07:00,85.1,88.7,30.04,SE,135,0.0,0.0,74,0.00,,,0.00,,2013-08-17 09:07:00,
2013-08-17 05:12:00,85.1,88.7,30.04,SE,135,0.0,0.4,74,0.00,,,0.00,,2013-08-17 09:12:00,
2013-08-17 05:17:00,85.1,88.7,30.05,ESE,112,0.0,0.0,74,0.00,,,0.00,,2013-08-17 09:17:00,
2013-08-17 05:22:00,85.1,88.7,30.05,ESE,112,0.0,0.0,74,0.00,,,0.00,,2013-08-17 09:22:00,
2013-08-17 05:27:00,85.1,88.7,30.05,ESE,112,0.0,0.0,74,0.00,,,0.00,,2013-08-17 09:27:00,
2013-08-17 05:32:00,85.2,88.7,30.04,ESE,112,0.0,0.0,74,0.00,,,0.00,,2013-08-17 09:32:00,
2013-08-17 05:37:00,85.2,88.7,30.04,ESE,112,0.1,0.4,74,0.00,,,0.00,,2013-08-17 09:37:00,
2013-08-17 05:42:00,85.1,88.7,30.04,SE,135,0.6,1.3,74,0.00,,,0.00,,2013-08-17 09:42:00,
2013-08-17 05:47:00,85.1,88.7,30.04,SE,135,0.0,0.0,74,0.00,,,0.00,,2013-08-17 09:47:00,
2013-08-17 05:52:00,85.1,88.7,30.05,SE,135,1.1,2.0,74,0.00,,,0.00,,2013-08-17 09:52:00,
2013-08-17 05:57:00,85.0,88.7,30.04,SE,135,0.8,2.0,74,0.00,,,0.00,,2013-08-17 09:57:00,
2013-08-17 06:02:00,84.9,88.7,30.04,SE,135,0.8,1.8,74,0.00,,,0.00,,2013-08-17 10:02:00,
2013-08-17 06:07:00,84.9,88.7,30.05,SE,135,0.2,0.4,74,0.00,,,0.00,,2013-08-17 10:07:00,
2013-08-17 06:12:00,84.9,88.7,30.04,ESE,112,0.6,2.9,74,0.00,,,0.00,,2013-08-17 10:12:00,
2013-08-17 06:17:00,84.9,88.7,30.05,ESE,112,1.0,1.6,74,0.00,,,0.00,,2013-08-17 10:17:00,
2013-08-17 06:22:00,84.8,88.7,30.04,SE,135,2.4,4.0,74,0.00,,,0.00,,2013-08-17 10:22:00,
2013-08-17 06:27:00,84.8,88.7,30.04,SE,135,2.3,3.6,74,0.00,,,0.00,,2013-08-17 10:27:00,
2013-08-17 06:32:00,84.7,88.6,30.04,SSE,157,2.4,4.5,74,0.00,,,0.00,,2013-08-17 10:32:00,
2013-08-17 06:37:00,84.6,88.7,30.05,SSE,157,1.8,2.9,74,0.00,,,0.00,,2013-08-17 10:37:00,
2013-08-17 06:42:00,84.6,88.7,30.05,SE,135,3.4,4.0,74,0.00,,,0.00,,2013-08-17 10:42:00,
2013-08-17 06:47:00,84.6,88.6,30.05,SE,135,2.4,3.4,74,0.00,,,0.00,,2013-08-17 10:47:00,
2013-08-17 06:53:00,84.6,88.7,30.05,SE,135,1.8,3.6,74,0.00,,,0.00,,2013-08-17 10:53:00,
2013-08-17 06:58:00,84.6,88.6,30.05,SE,135,1.9,3.4,74,0.00,,,0.00,,2013-08-17 10:58:00,
2013-08-17 07:03:00,84.6,88.6,30.05,SSE,157,1.4,3.1,74,0.00,,,0.00,,2013-08-17 11:03:00,
2013-08-17 07:08:00,84.7,88.6,30.05,SE,135,3.1,4.3,74,0.00,,,0.00,,2013-08-17 11:08:00,
2013-08-17 08:30:00,83.4,88.7,30.08,SSE,157,6.3,6.3,70,0.00,,,0.00,,2013-08-17 12:30:00,
2013-08-17 08:35:00,87.0,88.9,30.08,SE,135,9.2,10.7,68,0.00,,,0.00,,2013-08-17 12:35:00,
2013-08-17 08:40:00,87.7,88.9,30.08,SE,135,6.9,7.8,67,0.00,,,0.00,,2013-08-17 12:40:00,
2013-08-17 08:45:00,87.9,88.9,30.08,SE,135,6.0,8.1,66,0.00,,,0.00,,2013-08-17 12:45:00,
2013-08-17 08:50:00,87.7,88.8,30.08,ESE,112,8.1,8.5,66,0.00,,,0.00,,2013-08-17 12:50:00,
2013-08-17 08:55:00,87.9,88.8,30.08,SE,135,8.6,11.2,66,0.00,,,0.00,,2013-08-17 12:55:00,
2013-08-17 09:00:00,88.0,88.9,30.08,ESE,112,6.8,9.6,66,0.00,,,0.00,,2013-08-17 13:00:00,
2013-08-17 09:05:00,88.1,88.9,30.08,SE,135,5.8,7.2,66,0.00,,,0.00,,2013-08-17 13:05:00,
2013-08-17 09:10:00,88.1,88.8,30.08,SSE,157,5.5,7.8,67,0.00,,,0.00,,2013-08-17 13:10:00,
2013-08-17 09:15:00,88.1,88.8,30.08,SE,135,10.7,12.8,66,0.00,,,0.00,,2013-08-17 13:15:00,
2013-08-17 09:20:00,88.2,88.9,30.08,SE,135,8.9,14.5,66,0.00,,,0.00,,2013-08-17 13:20:00,
2013-08-17 09:25:00,88.4,89.0,30.08,South,180,10.6,13.0,66,0.00,,,0.00,,2013-08-17 13:25:00,
2013-08-17 09:30:00,88.5,88.9,30.08,SE,135,5.0,10.1,65,0.00,,,0.00,,2013-08-17 13:30:00,
2013-08-17 09:35:00,88.6,89.1,30.09,SE,135,11.7,14.8,65,0.00,,,0.00,,2013-08-17 13:35:00,
2013-08-17 09:40:00,88.6,89.1,30.09,SSE,157,8.7,13.0,65,0.00,,,0.00,,2013-08-17 13:40:00,
2013-08-17 09:45:00,88.8,89.0,30.09,ESE,112,6.5,8.5,65,0.00,,,0.00,,2013-08-17 13:45:00,
2013-08-17 09:50:00,88.7,89.0,30.09,SE,135,9.3,13.9,65,0.00,,,0.00,,2013-08-17 13:50:00,
2013-08-17 09:55:00,88.8,89.1,30.09,ESE,112,8.6,13.6,65,0.00,,,0.00,,2013-08-17 13:55:00,
2013-08-17 10:00:00,89.1,89.2,30.09,ESE,112,16.3,19.2,64,0.00,,,0.00,,2013-08-17 14:00:00,
2013-08-17 10:05:00,89.2,89.2,30.09,SSE,157,9.8,13.6,63,0.00,,,0.00,,2013-08-17 14:05:00,
2013-08-17 10:10:00,89.0,89.2,30.09,SSE,157,8.9,13.9,64,0.00,,,0.00,,2013-08-17 14:10:00,
2013-08-17 10:15:00,88.9,89.2,30.09,SSE,157,8.0,11.0,65,0.00,,,0.00,,2013-08-17 14:15:00,
2013-08-17 10:20:00,89.0,89.2,30.09,ESE,112,7.4,12.8,65,0.00,,,0.00,,2013-08-17 14:20:00,
2013-08-17 10:25:00,89.3,89.3,30.09,ESE,112,9.2,11.2,64,0.00,,,0.00,,2013-08-17 14:25:00,
2013-08-17 10:30:00,89.5,89.3,30.10,SE,135,10.9,12.8,64,0.00,,,0.00,,2013-08-17 14:30:00,
2013-08-17 10:35:00,89.7,89.3,30.10,ESE,112,12.6,15.0,62,0.00,,,0.00,,2013-08-17 14:35:00,
2013-08-17 10:40:00,89.5,89.4,30.09,SE,135,14.8,22.4,62,0.00,,,0.00,,2013-08-17 14:40:00,
2013-08-17 10:45:00,89.4,89.4,30.09,SE,135,9.0,11.4,63,0.00,,,0.00,,2013-08-17 14:45:00,
2013-08-17 10:50:00,89.4,89.4,30.10,ESE,112,11.5,14.8,63,0.00,,,0.00,,2013-08-17 14:50:00,
2013-08-17 10:55:00,89.5,89.5,30.10,SE,135,13.0,15.7,62,0.00,,,0.00,,2013-08-17 14:55:00,
2013-08-17 11:00:00,89.7,89.4,30.10,SE,135,11.8,14.8,62,0.00,,,0.00,,2013-08-17 15:00:00,
2013-08-17 11:05:00,89.8,89.5,30.10,East,90,6.2,6.9,61,0.00,,,0.00,,2013-08-17 15:05:00,
2013-08-17 11:10:00,89.6,89.4,30.10,SE,135,12.7,16.3,62,0.00,,,0.00,,2013-08-17 15:10:00,
2013-08-17 11:15:00,89.6,89.5,30.10,SE,135,14.6,18.3,63,0.00,,,0.00,,2013-08-17 15:15:00,
2013-08-17 11:20:00,89.4,89.4,30.10,SE,135,7.8,9.8,64,0.00,,,0.00,,2013-08-17 15:20:00,
2013-08-17 11:25:00,89.5,89.4,30.10,SE,135,11.2,14.8,65,0.00,,,0.00,,2013-08-17 15:25:00,
2013-08-17 11:30:00,89.4,89.4,30.10,SE,135,13.3,18.1,63,0.00,,,0.00,,2013-08-17 15:30:00,
2013-08-17 11:35:00,89.4,89.4,30.10,SE,135,11.3,15.9,63,0.00,,,0.00,,2013-08-17 15:35:00,
2013-08-17 11:40:00,89.5,89.6,30.10,ESE,112,9.3,12.3,63,0.00,,,0.00,,2013-08-17 15:40:00,
2013-08-17 11:45:00,89.5,89.5,30.10,SE,135,16.3,20.4,63,0.00,,,0.00,,2013-08-17 15:45:00,
2013-08-17 11:50:00,89.7,89.6,30.10,ESE,112,11.3,15.4,63,0.00,,,0.00,,2013-08-17 15:50:00,
2013-08-17 11:55:00,89.6,89.6,30.10,East,90,14.9,21.3,63,0.00,,,0.00,,2013-08-17 15:55:00,
2013-08-17 12:00:00,89.5,89.6,30.10,ESE,112,12.3,13.6,63,0.00,,,0.00,,2013-08-17 16:00:00,
2013-08-17 12:06:00,89.5,89.6,30.10,SSE,157,10.3,15.0,63,0.00,,,0.00,,2013-08-17 16:06:00,
2013-08-17 12:11:00,89.7,89.7,30.10,SE,135,10.6,13.2,63,0.00,,,0.00,,2013-08-17 16:11:00,
2013-08-17 12:16:00,89.7,89.7,30.10,SSE,157,13.8,19.9,62,0.00,,,0.00,,2013-08-17 16:16:00,
2013-08-17 12:21:00,89.6,89.8,30.09,SE,135,9.9,14.5,62,0.00,,,0.00,,2013-08-17 16:21:00,
2013-08-17 12:26:00,89.6,89.8,30.09,SE,135,9.9,16.1,62,0.00,,,0.00,,2013-08-17 16:26:00,
2013-08-17 12:31:00,89.8,89.8,30.09,ESE,112,9.5,13.0,62,0.00,,,0.00,,2013-08-17 16:31:00,
2013-08-17 12:36:00,89.8,89.8,30.09,SE,135,8.7,15.2,61,0.00,,,0.00,,2013-08-17 16:36:00,
2013-08-17 12:41:00,90.0,89.8,30.08,SE,135,10.6,13.0,61,0.00,,,0.00,,2013-08-17 16:41:00,
2013-08-17 12:46:00,89.9,89.8,30.08,East,90,10.2,18.1,59,0.00,,,0.00,,2013-08-17 16:46:00,
2013-08-17 12:51:00,89.8,89.9,30.08,ESE,112,17.3,21.0,59,0.00,,,0.00,,2013-08-17 16:51:00,
2013-08-17 12:56:00,89.7,90.0,30.08,SSE,157,13.6,20.4,59,0.00,,,0.00,,2013-08-17 16:56:00,
2013-08-17 13:01:00,89.8,90.0,30.08,SE,135,14.9,16.3,59,0.00,,,0.00,,2013-08-17 17:01:00,
2013-08-17 13:06:00,89.5,90.0,30.08,SE,135,12.9,17.4,59,0.00,,,0.00,,2013-08-17 17:06:00,
2013-08-17 13:11:00,89.5,90.0,30.08,SE,135,17.9,19.7,61,0.00,,,0.00,,2013-08-17 17:11:00,
2013-08-17 13:16:00,89.7,90.1,30.08,East,90,10.3,14.1,60,0.00,,,0.00,,2013-08-17 17:16:00,
2013-08-17 13:21:00,89.9,90.2,30.07,East,90,9.3,11.4,59,0.00,,,0.00,,2013-08-17 17:21:00,
2013-08-17 13:26:00,89.8,90.0,30.07,ESE,112,10.3,18.1,57,0.00,,,0.00,,2013-08-17 17:26:00,
2013-08-17 13:31:00,90.0,90.0,30.07,SE,135,8.9,8.9,57,0.00,,,0.00,,2013-08-17 17:31:00,
2013-08-17 13:36:00,90.0,90.2,30.07,SE,135,10.1,18.6,56,0.00,,,0.00,,2013-08-17 17:36:00,
2013-08-17 13:41:00,90.2,90.1,30.07,SE,135,14.1,19.0,57,0.00,,,0.00,,2013-08-17 17:41:00,
2013-08-17 13:46:00,90.2,90.2,30.07,East,90,5.3,8.1,58,0.00,,,0.00,,2013-08-17 17:46:00,
2013-08-17 13:51:00,90.3,90.1,30.07,ESE,112,11.2,17.9,55,0.00,,,0.00,,2013-08-17 17:51:00,
2013-08-17 13:56:00,90.3,90.1,30.07,SSE,157,11.3,15.9,58,0.00,,,0.00,,2013-08-17 17:56:00,
2013-08-17 14:01:00,90.4,90.1,30.07,SSE,157,9.8,14.3,57,0.00,,,0.00,,2013-08-17 18:01:00,
2013-08-17 14:06:00,90.3,90.1,30.07,SE,135,9.3,16.3,59,0.00,,,0.00,,2013-08-17 18:06:00,
2013-08-17 14:11:00,90.1,90.2,30.07,SSE,157,12.9,18.6,57,0.00,,,0.00,,2013-08-17 18:11:00,
2013-08-17 14:16:00,90.2,90.2,30.07,ESE,112,12.2,14.3,57,0.00,,,0.00,,2013-08-17 18:16:00,
2013-08-17 14:21:00,90.2,90.2,30.06,ESE,112,15.6,19.9,58,0.00,,,0.00,,2013-08-17 18:21:00,
2013-08-17 14:26:00,90.2,90.2,30.06,SE,135,12.7,16.6,58,0.00,,,0.00,,2013-08-17 18:26:00,
2013-08-17 14:31:00,90.1,90.2,30.06,SE,135,11.3,19.5,58,0.00,,,0.00,,2013-08-17 18:31:00,
2013-08-17 14:36:00,89.8,90.3,30.06,SSE,157,12.8,15.7,59,0.00,,,0.00,,2013-08-17 18:36:00,
2013-08-17 14:41:00,90.0,90.3,30.06,East,90,12.0,20.4,54,0.00,,,0.00,,2013-08-17 18:41:00,
2013-08-17 14:46:00,90.3,90.3,30.06,ESE,112,12.2,15.7,56,0.00,,,0.00,,2013-08-17 18:46:00,
2013-08-17 14:51:00,90.4,90.4,30.05,SSE,157,12.8,18.8,56,0.00,,,0.00,,2013-08-17 18:51:00,
2013-08-17 14:56:00,90.4,90.3,30.05,ESE,112,10.3,11.4,57,0.00,,,0.00,,2013-08-17 18:56:00,
2013-08-17 15:01:00,90.5,90.4,30.05,SE,135,15.4,21.7,57,0.00,,,0.00,,2013-08-17 19:01:00,
2013-08-17 15:06:00,90.2,90.4,30.05,ESE,112,10.8,14.1,58,0.00,,,0.00,,2013-08-17 19:06:00,
2013-08-17 15:11:00,90.1,90.4,30.05,ESE,112,12.8,15.2,58,0.00,,,0.00,,2013-08-17 19:11:00,
2013-08-17 15:16:00,89.8,90.4,30.05,SE,135,10.3,11.6,58,0.00,,,0.00,,2013-08-17 19:16:00,
2013-08-17 15:21:00,90.1,90.3,30.05,ESE,112,9.2,15.7,58,0.00,,,0.00,,2013-08-17 19:21:00,
2013-08-17 15:26:00,90.0,90.4,30.05,SSE,157,14.7,18.1,58,0.00,,,0.00,,2013-08-17 19:26:00,
2013-08-17 15:31:00,90.0,90.4,30.05,SE,135,6.7,14.8,58,0.00,,,0.00,,2013-08-17 19:31:00,
2013-08-17 15:36:00,90.1,90.5,30.04,South,180,11.6,13.4,57,0.00,,,0.00,,2013-08-17 19:36:00,
2013-08-17 15:41:00,90.0,90.5,30.05,SE,135,14.3,17.2,57,0.00,,,0.00,,2013-08-17 19:41:00,
2013-08-17 15:46:00,90.0,90.5,30.05,SSE,157,8.5,8.5,57,0.00,,,0.00,,2013-08-17 19:46:00,
2013-08-17 15:51:00,90.0,90.4,30.04,East,90,13.6,15.9,56,0.00,,,0.00,,2013-08-17 19:51:00,
2013-08-17 15:56:00,90.0,90.4,30.04,SSE,157,7.6,7.6,55,0.00,,,0.00,,2013-08-17 19:56:00,
2013-08-17 16:01:00,90.2,90.4,30.04,ESE,112,11.5,19.0,55,0.00,,,0.00,,2013-08-17 20:01:00,
2013-08-17 16:06:00,90.3,90.5,30.04,SE,135,12.1,12.1,56,0.00,,,0.00,,2013-08-17 20:06:00,
2013-08-17 16:11:00,90.4,90.5,30.04,SE,135,12.4,15.9,57,0.00,,,0.00,,2013-08-17 20:11:00,
2013-08-17 16:16:00,90.5,90.5,30.04,ESE,112,8.8,14.5,55,0.00,,,0.00,,2013-08-17 20:16:00,
2013-08-17 16:21:00,90.4,90.5,30.04,SE,135,14.1,17.7,56,0.00,,,0.00,,2013-08-17 20:21:00,
2013-08-17 16:26:00,90.2,90.6,30.04,ESE,112,10.3,17.4,56,0.00,,,0.00,,2013-08-17 20:26:00,
2013-08-17 16:31:00,90.2,90.6,30.04,ESE,112,11.7,14.3,56,0.00,,,0.00,,2013-08-17 20:31:00,
2013-08-17 16:36:00,90.2,90.6,30.04,SE,135,8.7,22.6,55,0.00,,,0.00,,2013-08-17 20:36:00,
2013-08-17 16:41:00,90.3,90.6,30.04,SSE,157,8.9,13.9,57,0.00,,,0.00,,2013-08-17 20:41:00,
2013-08-17 16:46:00,90.4,90.6,30.04,SE,135,9.7,12.5,57,0.00,,,0.00,,2013-08-17 20:46:00,
2013-08-17 16:51:00,90.4,90.6,30.04,SE,135,13.3,16.3,55,0.00,,,0.00,,2013-08-17 20:51:00,
2013-08-17 16:56:00,90.3,90.6,30.04,SSE,157,8.0,13.2,55,0.00,,,0.00,,2013-08-17 20:56:00,
2013-08-17 17:01:00,90.3,90.6,30.04,ESE,112,9.5,12.5,57,0.00,,,0.00,,2013-08-17 21:01:00,
2013-08-17 17:06:00,90.3,90.6,30.04,ESE,112,8.0,16.3,58,0.00,,,0.00,,2013-08-17 21:06:00,
2013-08-17 17:11:00,90.0,90.6,30.04,SSE,157,10.6,15.4,57,0.00,,,0.00,,2013-08-17 21:11:00,
2013-08-17 17:16:00,89.9,90.5,30.03,SSE,157,11.3,17.9,57,0.00,,,0.00,,2013-08-17 21:16:00,
2013-08-17 17:21:00,89.8,90.6,30.03,SE,135,9.0,11.2,60,0.00,,,0.00,,2013-08-17 21:21:00,
2013-08-17 17:26:00,89.9,90.6,30.03,SSE,157,12.0,19.7,59,0.00,,,0.00,,2013-08-17 21:26:00,
2013-08-17 17:31:00,90.0,90.6,30.04,ESE,112,7.1,10.3,60,0.00,,,0.00,,2013-08-17 21:31:00,
2013-08-17 17:36:00,90.3,90.6,30.04,SSE,157,10.8,14.1,58,0.00,,,0.00,,2013-08-17 21:36:00,
2013-08-17 17:41:00,90.2,90.6,30.04,SE,135,14.9,19.5,59,0.00,,,0.00,,2013-08-17 21:41:00,
2013-08-17 17:46:00,90.1,90.6,30.04,SE,135,10.9,13.9,59,0.00,,,0.00,,2013-08-17 21:46:00,
2013-08-17 17:51:00,89.9,90.6,30.04,SE,135,9.0,12.1,58,0.00,,,0.00,,2013-08-17 21:51:00,
2013-08-17 17:56:00,89.9,90.6,30.04,ESE,112,8.7,11.4,58,0.00,,,0.00,,2013-08-17 21:56:00,
2013-08-17 18:01:00,89.9,90.6,30.04,ESE,112,9.5,12.8,58,0.00,,,0.00,,2013-08-17 22:01:00,
2013-08-17 18:06:00,89.8,90.5,30.04,SE,135,10.3,13.4,59,0.00,,,0.00,,2013-08-17 22:06:00,
2013-08-17 18:11:00,89.8,90.6,30.04,ESE,112,8.8,12.5,59,0.00,,,0.00,,2013-08-17 22:11:00,
2013-08-17 18:16:00,90.0,90.5,30.04,SE,135,11.1,13.4,59,0.00,,,0.00,,2013-08-17 22:16:00,
2013-08-17 18:21:00,89.9,90.5,30.04,SSE,157,7.7,8.3,59,0.00,,,0.00,,2013-08-17 22:21:00,
2013-08-17 18:26:00,89.7,90.6,30.05,SSE,157,9.5,12.8,59,0.00,,,0.00,,2013-08-17 22:26:00,
2013-08-17 18:31:00,89.8,90.6,30.05,East,90,6.4,8.3,59,0.00,,,0.00,,2013-08-17 22:31:00,
2013-08-17 18:36:00,90.0,90.5,30.05,ESE,112,9.9,14.5,57,0.00,,,0.00,,2013-08-17 22:36:00,
2013-08-17 18:41:00,89.9,90.5,30.04,ESE,112,9.9,11.0,57,0.00,,,0.00,,2013-08-17 22:41:00,
2013-08-17 18:46:00,89.8,90.5,30.05,SE,135,11.2,14.8,56,0.00,,,0.00,,2013-08-17 22:46:00,
2013-08-17 18:51:00,89.8,90.4,30.05,SE,135,11.6,11.6,57,0.00,,,0.00,,2013-08-17 22:51:00,
2013-08-17 18:57:00,89.6,90.4,30.06,ESE,112,8.1,11.4,57,0.00,,,0.00,,2013-08-17 22:57:00,
2013-08-17 19:02:00,89.3,90.4,30.06,ESE,112,12.1,15.7,57,0.00,,,0.00,,2013-08-17 23:02:00,
2013-08-17 19:07:00,89.1,90.4,30.06,SE,135,8.2,11.9,59,0.00,,,0.00,,2013-08-17 23:07:00,
2013-08-17 19:12:00,89.0,90.4,30.05,ESE,112,6.0,9.2,61,0.00,,,0.00,,2013-08-17 23:12:00,
2013-08-17 19:17:00,89.0,90.3,30.06,SE,135,7.6,10.1,61,0.00,,,0.00,,2013-08-17 23:17:00,
2013-08-17 19:22:00,88.7,90.3,30.06,SE,135,6.5,13.9,61,0.00,,,0.00,,2013-08-17 23:22:00,
2013-08-17 19:27:00,88.5,90.3,30.06,SE,135,10.1,11.9,62,0.00,,,0.00,,2013-08-17 23:27:00,
2013-08-17 19:32:00,88.4,90.2,30.06,ESE,112,7.6,12.5,62,0.00,,,0.00,,2013-08-17 23:32:00,
2013-08-17 19:37:00,88.3,90.2,30.06,East,90,5.1,9.4,62,0.00,,,0.00,,2013-08-17 23:37:00,
2013-08-17 19:42:00,88.1,90.2,30.06,ESE,112,6.3,9.8,63,0.00,,,0.00,,2013-08-17 23:42:00,
2013-08-17 19:47:00,88.0,90.1,30.07,ESE,112,4.5,7.2,63,0.00,,,0.00,,2013-08-17 23:47:00,
2013-08-17 19:52:00,87.9,90.2,30.07,ESE,112,4.8,6.5,64,0.00,,,0.00,,2013-08-17 23:52:00,
2013-08-17 19:57:00,87.8,90.2,30.07,SE,135,7.2,9.6,64,0.00,,,0.00,,2013-08-17 23:57:00,
2013-08-17 20:02:00,87.6,90.2,30.07,East,90,6.9,10.3,65,0.00,,,0.00,,2013-08-18 00:02:00,
2013-08-17 20:07:00,87.5,90.1,30.08,ESE,112,5.0,6.7,65,0.00,,,0.00,,2013-08-18 00:07:00,
2013-08-17 20:12:00,87.4,90.1,30.08,East,90,5.0,6.5,65,0.00,,,0.00,,2013-08-18 00:12:00,
2013-08-17 20:17:00,87.4,90.1,30.08,ESE,112,6.7,11.0,64,0.00,,,0.00,,2013-08-18 00:17:00,
2013-08-17 20:22:00,87.3,90.1,30.08,East,90,9.5,12.3,64,0.00,,,0.00,,2013-08-18 00:22:00,
2013-08-17 20:27:00,87.2,90.0,30.08,ESE,112,4.8,6.7,64,0.00,,,0.00,,2013-08-18 00:27:00,
2013-08-17 20:32:00,87.1,90.0,30.09,SE,135,4.9,9.6,65,0.00,,,0.00,,2013-08-18 00:32:00,
2013-08-17 20:37:00,87.1,90.0,30.09,ESE,112,6.5,10.5,65,0.00,,,0.00,,2013-08-18 00:37:00,
2013-08-17 20:42:00,87.0,90.0,30.09,East,90,0.9,3.4,65,0.00,,,0.00,,2013-08-18 00:42:00,
2013-08-17 20:47:00,87.1,89.9,30.09,East,90,3.3,4.9,65,0.00,,,0.00,,2013-08-18 00:47:00,
2013-08-17 20:52:00,87.1,90.0,30.09,East,90,5.2,7.6,65,0.00,,,0.00,,2013-08-18 00:52:00,
2013-08-17 20:57:00,87.0,89.9,30.09,East,90,4.0,6.3,65,0.00,,,0.00,,2013-08-18 00:57:00,
2013-08-17 21:02:00,87.0,89.9,30.09,ESE,112,2.9,6.7,66,0.00,,,0.00,,2013-08-18 01:02:00,
2013-08-17 21:07:00,87.0,89.9,30.10,ESE,112,4.7,6.9,66,0.00,,,0.00,,2013-08-18 01:07:00,
2013-08-17 21:12:00,86.9,89.8,30.10,ESE,112,3.5,4.9,66,0.00,,,0.00,,2013-08-18 01:12:00,
2013-08-17 21:17:00,86.8,89.9,30.09,East,90,4.7,8.1,66,0.00,,,0.00,,2013-08-18 01:17:00,
2013-08-17 21:22:00,86.9,89.8,30.09,East,90,6.2,7.8,66,0.00,,,0.00,,2013-08-18 01:22:00,
2013-08-17 21:27:00,86.8,89.8,30.09,ESE,112,3.0,5.4,66,0.00,,,0.00,,2013-08-18 01:27:00,
2013-08-17 21:32:00,86.8,89.8,30.09,East,90,5.8,7.2,67,0.00,,,0.00,,2013-08-18 01:32:00,
2013-08-17 21:37:00,86.8,89.8,30.09,ESE,112,6.4,7.8,67,0.00,,,0.00,,2013-08-18 01:37:00,
2013-08-17 21:42:00,86.8,89.8,30.09,ESE,112,4.3,12.1,67,0.00,,,0.00,,2013-08-18 01:42:00,
2013-08-17 21:47:00,86.8,89.8,30.10,East,90,5.5,7.6,68,0.00,,,0.00,,2013-08-18 01:47:00,
2013-08-17 21:52:00,86.7,89.8,30.10,East,90,2.4,10.3,68,0.00,,,0.00,,2013-08-18 01:52:00,
2013-08-17 21:57:00,86.8,89.7,30.10,ESE,112,8.3,11.4,68,0.00,,,0.00,,2013-08-18 01:57:00,
2013-08-17 22:02:00,86.7,89.7,30.10,ESE,112,3.1,6.7,69,0.00,,,0.00,,2013-08-18 02:02:00,
2013-08-17 22:07:00,86.7,89.7,30.10,ESE,112,3.5,4.7,69,0.00,,,0.00,,2013-08-18 02:07:00,
2013-08-17 22:12:00,86.6,89.7,30.10,ESE,112,8.6,13.2,69,0.00,,,0.00,,2013-08-18 02:12:00,
2013-08-17 22:17:00,86.5,89.7,30.10,ESE,112,3.3,3.8,70,0.00,,,0.00,,2013-08-18 02:17:00,
2013-08-17 22:22:00,86.5,89.7,30.10,ESE,112,6.6,10.3,69,0.00,,,0.00,,2013-08-18 02:22:00,
2013-08-17 22:27:00,86.5,89.7,30.10,ESE,112,6.8,8.5,70,0.00,,,0.00,,2013-08-18 02:27:00,
2013-08-17 22:32:00,86.5,89.7,30.11,ESE,112,4.3,6.7,70,0.00,,,0.00,,2013-08-18 02:32:00,
2013-08-17 22:37:00,86.4,89.7,30.11,ESE,112,3.5,4.0,69,0.00,,,0.00,,2013-08-18 02:37:00,
2013-08-17 22:42:00,86.4,89.6,30.11,East,90,4.5,8.5,69,0.00,,,0.00,,2013-08-18 02:42:00,
2013-08-17 22:47:00,86.4,89.6,30.11,East,90,3.2,7.4,69,0.00,,,0.00,,2013-08-18 02:47:00,
2013-08-17 22:52:00,86.4,89.6,30.11,ESE,112,6.4,10.1,69,0.00,,,0.00,,2013-08-18 02:52:00,
2013-08-17 22:57:00,86.4,89.6,30.11,ESE,112,6.0,9.4,69,0.00,,,0.00,,2013-08-18 02:57:00,
2013-08-17 23:02:00,86.3,89.6,30.11,East,90,2.6,3.8,69,0.00,,,0.00,,2013-08-18 03:02:00,
2013-08-17 23:07:00,86.3,89.6,30.11,East,90,1.8,10.1,69,0.00,,,0.00,,2013-08-18 03:07:00,
2013-08-17 23:13:00,86.3,89.6,30.11,SE,135,4.6,7.4,69,0.00,,,0.00,,2013-08-18 03:13:00,
2013-08-17 23:18:00,86.3,89.6,30.11,ESE,112,7.0,9.4,69,0.00,,,0.00,,2013-08-18 03:18:00,
2013-08-17 23:23:00,86.2,89.6,30.11,ESE,112,4.6,6.3,69,0.00,,,0.00,,2013-08-18 03:23:00,
2013-08-17 23:28:00,86.1,89.6,30.11,SSE,157,4.9,7.2,69,0.00,,,0.00,,2013-08-18 03:28:00,
2013-08-17 23:33:00,86.1,89.6,30.10,East,90,4.0,6.3,68,0.00,,,0.00,,2013-08-18 03:33:00,
2013-08-17 23:38:00,86.1,89.6,30.10,ESE,112,4.3,6.9,68,0.00,,,0.00,,2013-08-18 03:38:00,
2013-08-17 23:43:00,86.1,89.5,30.11,East,90,4.3,5.8,68,0.00,,,0.00,,2013-08-18 03:43:00,
2013-08-17 23:48:00,86.0,89.5,30.10,ESE,112,5.2,9.2,68,0.00,,,0.00,,2013-08-18 03:48:00,
2013-08-17 23:53:00,86.0,89.5,30.11,SE,135,5.7,7.6,68,0.00,,,0.00,,2013-08-18 03:53:00,
2013-08-17 23:57:00,85.9,89.5,30.10,ESE,112,6.3,8.3,68,0.00,,,0.00,,2013-08-18 03:57:00,